Time;durP1;ratioP1;P1;durP2;ratioP2;P2;SDS_P1;SDS_P2;PMS_P1;PMS_P2;Temp;Humidity;BMP_temperature;BMP_pressure;BME280_temperature;BME280_humidity;BME280_pressure;Samples;Min_cycle;Max_cycle;Signal;HPM_P1;HPM_P2
2022/03/26 00:02:13;;;;;;;21.45;12.95;;;10.00;99.90;;;;;;5057106;28;20845;-59
2022/03/26 00:04:41;;;;;;;18.98;11.70;;;10.00;99.90;;;;;;5057776;28;20794;-60
2022/03/26 00:07:08;;;;;;;17.10;12.15;;;10.00;99.90;;;;;;5056772;28;20495;-59
2022/03/26 00:09:35;;;;;;;18.00;11.95;;;10.10;99.90;;;;;;5058020;28;20504;-59
2022/03/26 00:12:03;;;;;;;17.45;11.27;;;10.00;99.90;;;;;;5057181;28;20455;-59
2022/03/26 00:14:30;;;;;;;16.17;12.03;;;10.00;99.90;;;;;;5058115;28;20709;-59
2022/03/26 00:16:57;;;;;;;19.50;11.45;;;9.90;99.90;;;;;;5058367;28;20428;-59
2022/03/26 00:19:24;;;;;;;17.13;10.98;;;9.80;99.90;;;;;;5058070;28;20519;-59
2022/03/26 00:21:52;;;;;;;20.88;11.52;;;9.80;99.90;;;;;;5057424;28;20531;-59
2022/03/26 00:24:19;;;;;;;17.90;11.63;;;9.80;99.90;;;;;;5056568;28;20441;-59
2022/03/26 00:26:47;;;;;;;18.65;11.93;;;9.80;99.90;;;;;;5056232;28;20464;-61
2022/03/26 00:29:15;;;;;;;20.63;12.35;;;9.90;99.90;;;;;;5055637;28;20429;-59
2022/03/26 00:31:42;;;;;;;19.40;11.95;;;9.90;99.90;;;;;;5057379;28;20508;-59
2022/03/26 00:34:09;;;;;;;18.30;12.67;;;9.80;99.90;;;;;;5056110;28;20726;-59
2022/03/26 00:36:36;;;;;;;21.88;13.00;;;9.80;99.90;;;;;;5057492;28;20440;-59
2022/03/26 00:39:04;;;;;;;20.92;12.70;;;9.80;99.90;;;;;;5056505;28;20994;-59
2022/03/26 00:41:32;;;;;;;19.58;12.95;;;9.80;99.90;;;;;;5056051;28;20469;-59
2022/03/26 00:43:59;;;;;;;18.25;12.10;;;9.80;99.90;;;;;;5056424;28;20865;-59
2022/03/26 00:46:27;;;;;;;17.13;10.95;;;9.70;99.90;;;;;;5055832;28;20867;-61
2022/03/26 00:48:56;;;;;;;17.88;11.98;;;9.70;99.90;;;;;;5057307;28;20422;-58
2022/03/26 00:51:23;;;;;;;18.40;11.88;;;9.70;99.90;;;;;;5056423;28;20466;-62
2022/03/26 00:53:50;;;;;;;17.40;12.03;;;9.60;99.90;;;;;;5055143;28;20522;-61
2022/03/26 00:56:18;;;;;;;17.60;11.73;;;9.60;99.90;;;;;;5054607;28;20469;-61
2022/03/26 00:58:45;;;;;;;17.77;11.93;;;9.60;99.90;;;;;;5055238;28;20937;-61
2022/03/26 01:01:12;;;;;;;20.80;12.80;;;9.50;99.90;;;;;;5054843;28;20533;-61
2022/03/26 01:03:39;;;;;;;16.63;11.53;;;9.50;99.90;;;;;;5056240;28;20425;-61
2022/03/26 01:06:06;;;;;;;19.40;11.52;;;9.50;99.90;;;;;;5055742;28;20515;-60
2022/03/26 01:08:33;;;;;;;20.42;11.75;;;9.50;99.90;;;;;;5056447;28;20477;-60
2022/03/26 01:11:00;;;;;;;18.40;12.15;;;9.40;99.90;;;;;;5055114;28;20787;-61
2022/03/26 01:13:30;;;;;;;21.52;12.55;;;9.40;99.90;;;;;;5057341;28;20425;-61
2022/03/26 01:15:57;;;;;;;16.67;10.60;;;9.30;99.90;;;;;;5056511;28;20490;-60
2022/03/26 01:18:23;;;;;;;15.75;10.90;;;9.30;99.90;;;;;;5056801;28;20876;-61
2022/03/26 01:20:50;;;;;;;18.27;11.98;;;9.20;99.90;;;;;;5056588;28;20473;-61
2022/03/26 01:23:19;;;;;;;20.27;12.38;;;9.20;99.90;;;;;;5056716;28;20827;-58
2022/03/26 01:25:46;;;;;;;19.67;11.98;;;9.30;99.90;;;;;;5056063;28;20463;-60
2022/03/26 01:28:13;;;;;;;20.70;12.17;;;9.20;99.90;;;;;;5056319;28;20417;-60
2022/03/26 01:30:42;;;;;;;19.57;13.07;;;9.20;99.90;;;;;;5056531;28;20554;-60
2022/03/26 01:33:09;;;;;;;18.05;11.30;;;9.20;99.90;;;;;;5056345;28;20421;-60
2022/03/26 01:35:36;;;;;;;19.00;11.60;;;9.10;99.90;;;;;;5056528;28;20436;-60
2022/03/26 01:38:05;;;;;;;18.60;11.43;;;9.10;99.90;;;;;;5055700;28;20461;-60
2022/03/26 01:40:32;;;;;;;20.80;11.33;;;9.10;99.90;;;;;;5056436;28;20417;-60
2022/03/26 01:43:00;;;;;;;20.48;11.77;;;9.10;99.90;;;;;;5055747;28;20550;-60
2022/03/26 01:45:28;;;;;;;17.60;12.40;;;9.10;99.90;;;;;;5056891;28;20414;-60
2022/03/26 01:47:56;;;;;;;17.08;10.63;;;9.10;99.90;;;;;;5055875;28;20428;-60
2022/03/26 01:50:24;;;;;;;18.58;11.95;;;9.20;99.90;;;;;;5056380;28;20425;-59
2022/03/26 01:52:51;;;;;;;17.17;11.90;;;9.20;99.90;;;;;;5055863;28;20780;-59
2022/03/26 01:55:19;;;;;;;17.40;11.20;;;9.10;99.90;;;;;;5056172;28;20421;-60
2022/03/26 01:57:46;;;;;;;20.45;11.90;;;9.10;99.90;;;;;;5055297;28;20517;-60
2022/03/26 02:00:14;;;;;;;16.57;10.73;;;9.00;99.90;;;;;;5056254;28;20421;-60
2022/03/26 02:02:43;;;;;;;15.15;11.20;;;9.00;99.90;;;;;;5055114;28;20532;-60
2022/03/26 02:05:12;;;;;;;16.98;10.60;;;9.00;99.90;;;;;;5056214;28;20889;-60
2022/03/26 02:07:40;;;;;;;17.38;11.40;;;9.00;99.90;;;;;;5056097;28;20922;-60
2022/03/26 02:10:09;;;;;;;19.73;11.38;;;8.90;99.90;;;;;;5056324;28;20432;-60
2022/03/26 02:12:37;;;;;;;20.90;11.07;;;8.90;99.90;;;;;;5055260;28;20759;-60
2022/03/26 02:15:06;;;;;;;19.55;12.25;;;8.80;99.90;;;;;;5056429;28;20434;-60
2022/03/26 02:17:33;;;;;;;17.60;10.00;;;8.80;99.90;;;;;;5055707;28;20433;-60
2022/03/26 02:20:04;;;;;;;16.40;10.70;;;8.80;99.90;;;;;;5056091;28;20500;-60
2022/03/26 02:22:31;;;;;;;16.40;10.47;;;8.70;99.90;;;;;;5053258;28;20532;-61
2022/03/26 02:24:58;;;;;;;20.73;11.27;;;8.80;99.90;;;;;;5052220;28;20548;-60
2022/03/26 02:27:27;;;;;;;17.90;11.70;;;8.70;99.90;;;;;;5053387;28;20465;-60
2022/03/26 02:29:54;;;;;;;17.30;11.18;;;8.80;99.90;;;;;;5054531;28;20461;-59
2022/03/26 02:32:21;;;;;;;16.25;10.30;;;8.80;99.90;;;;;;5054190;28;20519;-60
2022/03/26 02:34:49;;;;;;;18.90;11.10;;;8.80;99.90;;;;;;5054951;28;20792;-60
2022/03/26 02:37:18;;;;;;;15.88;10.80;;;8.80;99.90;;;;;;5054748;28;20460;-60
2022/03/26 02:39:45;;;;;;;18.37;10.50;;;8.80;99.90;;;;;;5055865;28;20817;-59
2022/03/26 02:42:13;;;;;;;18.45;10.77;;;8.80;99.90;;;;;;5054536;28;20532;-58
2022/03/26 02:44:40;;;;;;;16.75;10.15;;;8.70;99.90;;;;;;5055349;28;20728;-58
2022/03/26 02:47:08;;;;;;;16.85;10.60;;;8.70;99.90;;;;;;5054282;28;20512;-58
2022/03/26 02:49:35;;;;;;;19.67;11.63;;;8.70;99.90;;;;;;5055049;28;20425;-58
2022/03/26 02:52:02;;;;;;;16.67;10.88;;;8.70;99.90;;;;;;5053206;28;20556;-58
2022/03/26 02:54:31;;;;;;;16.50;10.53;;;8.60;99.90;;;;;;5053862;28;20468;-59
2022/03/26 02:56:58;;;;;;;16.95;10.82;;;8.60;99.90;;;;;;5052763;28;20429;-58
2022/03/26 02:59:25;;;;;;;16.95;10.77;;;8.50;99.90;;;;;;5053985;28;20468;-59
2022/03/26 03:01:52;;;;;;;19.15;11.32;;;8.50;1.00;;;;;;5053414;28;20437;-59
2022/03/26 03:04:20;;;;;;;16.98;9.70;;;8.40;1.00;;;;;;5054703;28;20836;-58
2022/03/26 03:06:47;;;;;;;17.60;10.55;;;8.40;1.00;;;;;;5054495;28;20459;-59
2022/03/26 03:09:14;;;;;;;16.63;10.65;;;8.40;1.00;;;;;;5055026;28;20413;-60
2022/03/26 03:11:43;;;;;;;16.45;10.43;;;8.40;1.00;;;;;;5054193;28;20516;-61
2022/03/26 03:14:11;;;;;;;17.55;10.98;;;8.30;1.00;;;;;;5054879;28;20504;-61
2022/03/26 03:16:38;;;;;;;16.07;9.60;;;8.30;1.00;;;;;;5053968;28;20429;-60
2022/03/26 03:19:05;;;;;;;15.30;9.30;;;8.30;1.00;;;;;;5055155;28;20461;-60
2022/03/26 03:21:33;;;;;;;17.52;9.95;;;8.20;1.00;;;;;;5054015;28;20527;-59
2022/03/26 03:24:00;;;;;;;14.63;10.60;;;8.20;1.00;;;;;;5054961;28;20456;-60
2022/03/26 03:26:26;;;;;;;17.35;11.30;;;8.20;1.00;;;;;;5053709;28;20871;-60
2022/03/26 03:28:55;;;;;;;17.33;10.35;;;8.30;1.00;;;;;;5054973;28;20548;-60
2022/03/26 03:31:21;;;;;;;17.10;10.05;;;8.30;1.00;;;;;;5053929;28;20524;-60
2022/03/26 03:33:48;;;;;;;13.43;10.00;;;8.20;1.00;;;;;;5054833;28;20515;-61
2022/03/26 03:36:15;;;;;;;17.42;10.38;;;8.20;1.00;;;;;;5053834;28;20781;-60
2022/03/26 03:38:42;;;;;;;17.65;10.25;;;8.20;1.00;;;;;;5054932;28;20870;-59
2022/03/26 03:41:09;;;;;;;15.00;9.60;;;8.10;1.00;;;;;;5053344;28;20504;-59
2022/03/26 03:43:36;;;;;;;19.60;11.60;;;8.20;1.00;;;;;;5055080;28;20499;-60
2022/03/26 03:46:04;;;;;;;13.88;9.07;;;8.20;1.00;;;;;;5053797;28;20506;-60
2022/03/26 03:48:31;;;;;;;16.13;10.45;;;8.20;1.00;;;;;;5054880;28;20449;-60
2022/03/26 03:53:27;;;;;;;15.75;10.07;;;8.10;1.00;;;;;;5032841;28;20885;-60
2022/03/26 03:55:54;;;;;;;13.95;9.50;;;8.10;1.00;;;;;;5034762;28;20442;-59
2022/03/26 03:58:20;;;;;;;16.38;10.48;;;8.00;1.00;;;;;;5034041;28;20855;-60
2022/03/26 04:00:47;;;;;;;18.65;10.15;;;7.90;1.00;;;;;;5034718;28;20513;-60
2022/03/26 04:03:17;;;;;;;15.77;9.85;;;7.90;1.00;;;;;;5033937;28;20961;-60
2022/03/26 04:05:44;;;;;;;20.00;10.38;;;7.90;1.00;;;;;;5034766;28;20515;-60
2022/03/26 04:08:10;;;;;;;18.05;9.90;;;7.90;1.00;;;;;;5033935;28;20839;-60
2022/03/26 04:10:37;;;;;;;15.13;9.60;;;8.00;1.00;;;;;;5034704;28;20886;-60
2022/03/26 04:13:04;;;;;;;18.25;11.00;;;8.00;1.00;;;;;;5033522;28;20850;-61
2022/03/26 04:15:31;;;;;;;14.75;10.45;;;7.90;1.00;;;;;;5034657;28;20427;-60
2022/03/26 04:17:58;;;;;;;15.80;9.77;;;7.80;1.00;;;;;;5033925;28;20538;-60
2022/03/26 04:20:26;;;;;;;16.13;9.10;;;7.80;1.00;;;;;;5034707;28;20423;-60
2022/03/26 04:22:53;;;;;;;17.85;10.45;;;7.70;1.00;;;;;;5033970;28;20446;-60
2022/03/26 04:25:20;;;;;;;18.85;11.15;;;7.80;1.00;;;;;;5034885;28;20530;-60
2022/03/26 04:27:49;;;;;;;14.65;9.15;;;7.80;1.00;;;;;;5033629;28;20467;-60
2022/03/26 04:30:17;;;;;;;16.25;10.98;;;7.70;1.00;;;;;;5034654;28;20419;-60
2022/03/26 04:32:44;;;;;;;15.57;9.80;;;7.60;1.00;;;;;;5034582;28;20427;-60
2022/03/26 04:35:12;;;;;;;14.88;9.85;;;7.60;1.00;;;;;;5037831;28;20798;-60
2022/03/26 04:37:41;;;;;;;16.25;10.27;;;7.60;1.00;;;;;;5037236;28;20889;-60
2022/03/26 04:40:11;;;;;;;16.70;10.45;;;7.60;1.00;;;;;;5037899;28;20786;-61
2022/03/26 04:42:39;;;;;;;18.35;10.80;;;7.50;1.00;;;;;;5037667;28;20443;-60
2022/03/26 04:45:07;;;;;;;17.40;10.10;;;7.50;1.00;;;;;;5037817;28;20427;-59
2022/03/26 04:47:34;;;;;;;15.27;10.23;;;7.50;1.00;;;;;;5037236;28;20430;-60
2022/03/26 04:50:01;;;;;;;13.68;9.05;;;7.50;1.00;;;;;;5038010;28;20898;-60
2022/03/26 04:52:28;;;;;;;16.75;10.30;;;7.50;1.00;;;;;;5036804;28;20712;-60
2022/03/26 04:54:56;;;;;;;19.02;10.32;;;7.60;1.00;;;;;;5036920;28;20460;-60
2022/03/26 04:57:23;;;;;;;16.20;10.10;;;7.50;1.00;;;;;;5035747;28;21053;-60
2022/03/26 04:59:50;;;;;;;14.52;9.25;;;7.50;1.00;;;;;;5036224;28;20894;-60
2022/03/26 05:02:17;;;;;;;15.35;9.32;;;7.40;1.00;;;;;;5035870;28;20720;-60
2022/03/26 05:04:43;;;;;;;15.90;9.50;;;7.40;1.00;;;;;;5036945;28;20533;-61
2022/03/26 05:09:56;;;;;;;17.13;10.13;;;7.40;1.00;;;;;;5036852;28;20433;-59
2022/03/26 05:12:23;;;;;;;14.40;8.70;;;7.40;1.00;;;;;;5036465;28;20525;-60
2022/03/26 05:14:50;;;;;;;17.00;9.20;;;7.60;1.00;;;;;;5037440;28;20426;-60
2022/03/26 05:17:17;;;;;;;13.98;9.20;;;7.70;1.00;;;;;;5036354;28;20529;-60
2022/03/26 05:19:44;;;;;;;14.50;8.60;;;7.70;1.00;;;;;;5036680;28;20510;-60
2022/03/26 05:22:10;;;;;;;16.00;9.50;;;7.80;1.00;;;;;;5035530;28;20474;-60
2022/03/26 05:24:37;;;;;;;15.50;9.30;;;7.80;1.00;;;;;;5037055;28;20459;-60
2022/03/26 05:27:06;;;;;;;14.63;9.13;;;8.00;1.00;;;;;;5036357;28;20463;-60
2022/03/26 05:29:33;;;;;;;12.43;8.50;;;8.10;1.00;;;;;;5036952;28;20427;-60
2022/03/26 05:32:00;;;;;;;15.57;9.10;;;8.20;1.00;;;;;;5036867;28;20526;-60
2022/03/26 05:34:27;;;;;;;16.17;8.52;;;8.10;1.00;;;;;;5036430;28;20854;-60
2022/03/26 05:36:54;;;;;;;12.23;8.70;;;8.10;1.00;;;;;;5036077;28;20863;-60
2022/03/26 05:39:21;;;;;;;15.10;9.20;;;8.10;1.00;;;;;;5034429;28;20435;-60
2022/03/26 05:41:48;;;;;;;14.82;9.30;;;8.20;1.00;;;;;;5035545;28;20505;-60
2022/03/26 05:44:17;;;;;;;15.07;9.65;;;8.30;1.00;;;;;;5033566;28;20463;-59
2022/03/26 05:46:43;;;;;;;16.43;10.13;;;8.30;1.00;;;;;;5035528;28;20805;-60
2022/03/26 05:49:10;;;;;;;14.88;9.38;;;8.30;1.00;;;;;;5034140;28;21011;-60
2022/03/26 05:51:37;;;;;;;15.40;10.00;;;8.00;1.00;;;;;;5034041;28;20934;-60
2022/03/26 05:54:04;;;;;;;14.38;8.85;;;8.00;1.00;;;;;;5033490;28;20441;-60
2022/03/26 05:56:36;;;;;;;13.82;9.15;;;8.10;1.00;;;;;;5034720;28;20918;-60
2022/03/26 05:59:03;;;;;;;14.43;9.00;;;8.20;1.00;;;;;;5034511;28;20435;-59
2022/03/26 06:01:31;;;;;;;14.48;8.70;;;8.40;1.00;;;;;;5034641;28;20422;-60
2022/03/26 06:03:58;;;;;;;14.85;9.90;;;8.50;1.00;;;;;;5032517;28;20440;-60
2022/03/26 06:06:25;;;;;;;14.70;8.98;;;8.60;1.00;;;;;;5033378;28;20463;-60
2022/03/26 06:08:52;;;;;;;15.32;10.60;;;8.70;1.00;;;;;;5033288;28;20883;-59
2022/03/26 06:11:19;;;;;;;14.63;10.45;;;8.60;1.00;;;;;;5035137;28;20529;-59
2022/03/26 06:13:46;;;;;;;14.07;8.90;;;8.70;1.00;;;;;;5033747;28;20521;-59
2022/03/26 06:16:13;;;;;;;15.82;10.05;;;8.70;1.00;;;;;;5035014;28;20817;-59
2022/03/26 06:18:42;;;;;;;15.73;8.98;;;8.40;1.00;;;;;;5035725;28;20441;-59
2022/03/26 06:21:09;;;;;;;17.38;9.52;;;8.50;1.00;;;;;;5036236;28;20485;-59
2022/03/26 06:23:36;;;;;;;14.75;9.43;;;8.60;1.00;;;;;;5034813;28;20474;-60
2022/03/26 06:26:02;;;;;;;15.25;9.98;;;8.70;1.00;;;;;;5034497;28;20423;-59
2022/03/26 06:28:29;;;;;;;16.98;9.93;;;8.80;1.00;;;;;;5033387;28;20455;-58
2022/03/26 06:30:57;;;;;;;14.15;9.27;;;8.80;1.00;;;;;;5034333;28;20474;-59
2022/03/26 06:33:24;;;;;;;17.85;10.18;;;9.00;1.00;;;;;;5033033;28;20431;-58
2022/03/26 06:35:52;;;;;;;13.75;9.35;;;9.10;1.00;;;;;;5034328;28;20495;-59
2022/03/26 06:38:19;;;;;;;16.80;9.73;;;9.10;1.00;;;;;;5032871;28;20521;-58
2022/03/26 06:40:46;;;;;;;14.17;9.30;;;9.10;1.00;;;;;;5035219;28;20692;-58
2022/03/26 06:43:13;;;;;;;13.73;9.10;;;9.20;1.00;;;;;;5038238;28;20477;-59
2022/03/26 06:45:41;;;;;;;16.27;9.73;;;9.20;1.00;;;;;;5055312;28;20422;-59
2022/03/26 06:48:08;;;;;;;16.38;9.65;;;9.30;1.00;;;;;;5054155;28;20421;-59
2022/03/26 06:50:35;;;;;;;16.80;9.70;;;9.40;1.00;;;;;;5055447;28;20461;-59
2022/03/26 06:53:03;;;;;;;15.10;9.70;;;9.40;1.00;;;;;;5054025;28;20531;-59
2022/03/26 06:55:31;;;;;;;17.55;10.18;;;9.10;1.00;;;;;;5055033;28;20468;-61
2022/03/26 06:57:58;;;;;;;14.32;9.45;;;9.10;1.00;;;;;;5055234;28;20790;-59
2022/03/26 07:00:25;;;;;;;16.77;11.23;;;8.90;1.00;;;;;;5055125;28;20421;-60
2022/03/26 07:02:52;;;;;;;19.20;11.20;;;8.90;1.00;;;;;;5054614;28;20865;-60
2022/03/26 07:05:19;;;;;;;15.30;9.70;;;8.90;1.00;;;;;;5054420;28;20480;-59
2022/03/26 07:07:45;;;;;;;19.13;10.65;;;9.00;1.00;;;;;;5035952;28;20489;-61
2022/03/26 07:10:14;;;;;;;16.08;10.70;;;9.10;1.00;;;;;;5033014;28;20510;-60
2022/03/26 07:12:41;;;;;;;19.45;11.85;;;9.00;1.00;;;;;;5034248;28;20497;-61
2022/03/26 07:15:09;;;;;;;15.23;10.35;;;8.90;1.00;;;;;;5034019;28;20485;-58
2022/03/26 07:17:39;;;;;;;18.13;10.00;;;8.80;1.00;;;;;;5033680;28;20718;-59
2022/03/26 07:20:07;;;;;;;18.45;11.65;;;8.90;1.00;;;;;;5034556;28;20463;-58
2022/03/26 07:22:34;;;;;;;17.70;10.43;;;9.00;1.00;;;;;;5034296;28;20888;-59
2022/03/26 07:25:01;;;;;;;17.93;11.20;;;9.00;1.00;;;;;;5033888;28;20738;-59
2022/03/26 07:27:32;;;;;;;17.63;10.20;;;8.90;1.00;;;;;;5033667;28;20509;-61
2022/03/26 07:29:59;;;;;;;16.85;10.68;;;9.10;1.00;;;;;;5031718;28;20827;-58
2022/03/26 07:32:26;;;;;;;17.80;10.90;;;9.50;1.00;;;;;;5033779;28;20908;-59
2022/03/26 07:34:52;;;;;;;14.50;10.10;;;9.70;1.00;;;;;;5033998;28;20455;-58
2022/03/26 07:37:19;;;;;;;19.65;11.32;;;9.70;1.00;;;;;;5034790;28;20430;-58
2022/03/26 07:39:47;;;;;;;16.20;10.30;;;9.80;1.00;;;;;;5033239;28;20471;-58
2022/03/26 07:42:14;;;;;;;20.45;12.55;;;9.80;1.00;;;;;;5032660;28;20818;-58
2022/03/26 07:44:42;;;;;;;21.10;10.73;;;9.90;1.00;;;;;;5031574;28;20743;-58
2022/03/26 07:47:09;;;;;;;14.90;11.27;;;10.00;1.00;;;;;;5032456;28;20505;-58
2022/03/26 07:49:36;;;;;;;16.15;11.30;;;10.10;1.00;;;;;;5033017;28;20431;-62
2022/03/26 07:52:04;;;;;;;21.08;11.60;;;9.90;1.00;;;;;;5030942;28;20878;-60
2022/03/26 07:54:31;;;;;;;17.40;11.05;;;9.90;1.00;;;;;;5030932;28;20708;-62
2022/03/26 07:56:58;;;;;;;19.38;11.70;;;10.00;1.00;;;;;;5031132;28;20458;-60
2022/03/26 07:59:25;;;;;;;13.57;9.25;;;10.00;1.00;;;;;;5031266;28;20811;-62
2022/03/26 08:01:53;;;;;;;16.00;10.70;;;10.00;1.00;;;;;;5031276;28;20521;-62
2022/03/26 08:04:20;;;;;;;21.02;10.88;;;10.20;1.00;;;;;;5031445;28;20431;-59
2022/03/26 08:06:47;;;;;;;14.65;10.70;;;10.40;1.00;;;;;;5032428;28;20498;-61
2022/03/26 08:09:13;;;;;;;15.38;9.60;;;10.70;1.00;;;;;;5037526;28;20517;-61
2022/03/26 08:11:42;;;;;;;16.65;10.50;;;10.80;1.00;;;;;;5036031;28;20458;-62
2022/03/26 08:14:09;;;;;;;16.67;9.13;;;10.90;1.00;;;;;;5035346;28;20437;-61
2022/03/26 08:16:36;;;;;;;16.40;9.95;;;11.10;1.00;;;;;;5034681;28;20427;-61
2022/03/26 08:19:04;;;;;;;17.80;12.10;;;11.20;1.00;;;;;;5035384;28;20430;-62
2022/03/26 08:21:35;;;;;;;16.50;11.23;;;11.20;1.00;;;;;;5035515;28;20525;-62
2022/03/26 08:24:01;;;;;;;18.88;11.30;;;11.10;1.00;;;;;;5034753;28;20438;-62
2022/03/26 08:26:29;;;;;;;16.77;11.32;;;11.20;1.00;;;;;;5036276;28;20431;-60
2022/03/26 08:28:58;;;;;;;15.73;10.43;;;11.10;1.00;;;;;;5036607;28;20527;-60
2022/03/26 08:31:27;;;;;;;17.15;11.65;;;11.20;1.00;;;;;;5036243;28;20462;-60
2022/03/26 08:33:54;;;;;;;18.38;10.65;;;11.10;1.00;;;;;;5036430;28;20423;-60
2022/03/26 08:36:24;;;;;;;14.68;10.23;;;11.30;1.00;;;;;;5036840;28;20466;-60
2022/03/26 08:38:51;;;;;;;16.63;11.10;;;11.50;1.00;;;;;;5034499;28;21022;-59
2022/03/26 08:41:20;;;;;;;15.10;10.85;;;11.80;1.00;;;;;;5036472;28;20855;-57
2022/03/26 08:43:48;;;;;;;21.73;11.60;;;11.80;99.90;;;;;;5035166;28;20438;-58
2022/03/26 08:46:15;;;;;;;19.65;10.00;;;11.60;99.90;;;;;;5035559;28;20743;-59
2022/03/26 08:48:42;;;;;;;14.20;10.35;;;11.50;99.90;;;;;;5034908;28;20467;-59
2022/03/26 08:51:09;;;;;;;18.70;11.00;;;11.80;1.00;;;;;;5034349;28;20481;-60
2022/03/26 08:53:37;;;;;;;15.82;10.70;;;12.10;1.00;;;;;;5034120;28;20430;-58
2022/03/26 08:56:06;;;;;;;15.73;10.90;;;12.30;99.90;;;;;;5035026;28;20497;-59
2022/03/26 08:58:33;;;;;;;19.93;11.20;;;12.50;99.90;;;;;;5021667;28;20529;-60
2022/03/26 09:01:00;;;;;;;17.58;10.65;;;12.40;99.90;;;;;;5033432;28;20480;-60
2022/03/26 09:03:27;;;;;;;19.15;11.77;;;12.40;99.90;;;;;;5025097;28;20533;-60
2022/03/26 09:05:55;;;;;;;14.83;9.60;;;12.60;1.00;;;;;;5027516;28;20454;-62
2022/03/26 09:08:22;;;;;;;18.08;11.48;;;12.80;99.90;;;;;;5020279;28;20900;-59
2022/03/26 09:10:50;;;;;;;22.00;15.48;;;13.00;99.90;;;;;;5025355;28;20513;-63
2022/03/26 09:13:17;;;;;;;18.37;11.00;;;13.10;99.90;;;;;;5022471;28;20507;-60
2022/03/26 09:15:44;;;;;;;17.70;11.25;;;12.90;99.90;;;;;;5018661;28;20431;-60
2022/03/26 09:18:11;;;;;;;16.20;10.57;;;12.80;99.90;;;;;;5027694;28;20442;-62
2022/03/26 09:20:38;;;;;;;17.98;11.20;;;12.90;99.90;;;;;;5023899;28;20456;-61
2022/03/26 09:23:05;;;;;;;16.42;10.07;;;13.00;99.90;;;;;;5033330;28;20442;-60
2022/03/26 09:25:33;;;;;;;15.90;10.20;;;13.00;99.90;;;;;;5034488;28;20430;-61
2022/03/26 09:28:02;;;;;;;15.52;9.90;;;13.10;99.90;;;;;;5032237;28;20447;-60
2022/03/26 09:30:31;;;;;;;16.77;10.60;;;13.20;99.90;;;;;;5033326;28;21110;-61
2022/03/26 09:32:59;;;;;;;20.65;12.35;;;13.40;99.90;;;;;;5033844;28;20434;-61
2022/03/26 09:35:26;;;;;;;16.75;10.68;;;13.40;99.90;;;;;;5033500;28;20754;-61
2022/03/26 09:37:53;;;;;;;17.52;11.13;;;13.30;99.90;;;;;;5034490;28;20419;-60
2022/03/26 09:40:23;;;;;;;14.85;10.07;;;13.40;99.90;;;;;;5034019;28;20846;-60
2022/03/26 09:42:51;;;;;;;15.82;10.63;;;13.60;99.90;;;;;;5035129;28;20834;-60
2022/03/26 09:45:20;;;;;;;17.80;11.27;;;13.80;99.90;;;;;;5033887;28;20510;-59
2022/03/26 09:47:47;;;;;;;17.35;11.68;;;13.90;99.90;;;;;;5034650;28;20509;-60
2022/03/26 09:50:15;;;;;;;17.20;10.60;;;14.00;99.90;;;;;;5033504;28;20554;-60
2022/03/26 09:52:42;;;;;;;19.35;11.73;;;14.10;99.90;;;;;;5034183;28;20492;-60
2022/03/26 09:55:12;;;;;;;17.75;10.45;;;14.20;99.90;;;;;;5034316;28;20779;-60
2022/03/26 09:57:39;;;;;;;19.20;11.48;;;14.40;99.90;;;;;;5035053;28;20911;-60
2022/03/26 10:00:08;;;;;;;18.17;12.48;;;14.60;99.90;;;;;;5032946;28;20463;-60
2022/03/26 10:02:36;;;;;;;15.27;10.80;;;14.70;99.90;;;;;;5033651;28;20522;-59
2022/03/26 10:05:05;;;;;;;17.88;11.35;;;14.90;99.90;;;;;;5033388;28;20439;-60
2022/03/26 10:07:32;;;;;;;20.75;11.82;;;15.30;99.90;;;;;;5034204;28;20688;-59
2022/03/26 10:09:59;;;;;;;17.73;10.63;;;15.30;99.90;;;;;;5032005;28;20541;-59
2022/03/26 10:12:27;;;;;;;18.90;10.70;;;15.60;99.90;;;;;;5033456;28;20514;-59
2022/03/26 10:14:56;;;;;;;16.40;10.98;;;15.90;99.90;;;;;;5034104;28;20433;-60
2022/03/26 10:17:25;;;;;;;17.25;11.80;;;16.20;99.90;;;;;;5034177;28;20419;-61
2022/03/26 10:19:55;;;;;;;20.08;12.15;;;16.40;99.90;;;;;;5032294;28;20558;-61
2022/03/26 10:22:30;;;;;;;18.87;12.47;;;16.10;99.90;;;;;;5033323;28;20467;-61
2022/03/26 10:24:59;;;;;;;14.95;10.38;;;16.00;99.90;;;;;;5030510;28;20796;-61
2022/03/26 10:27:26;;;;;;;18.00;11.80;;;16.20;99.90;;;;;;5030427;28;20496;-61
2022/03/26 10:29:55;;;;;;;19.83;12.23;;;16.40;99.90;;;;;;5026123;28;20474;-62
2022/03/26 10:32:41;;;;;;;18.73;12.50;;;16.70;99.90;;;;;;5030663;28;20854;-61
2022/03/26 10:35:24;;;;;;;19.08;12.35;;;17.00;99.90;;;;;;5031724;28;20426;-62
2022/03/26 10:37:58;;;;;;;18.23;12.60;;;17.50;99.90;;;;;;5030604;28;20847;-63
2022/03/26 10:40:28;;;;;;;18.50;12.00;;;17.70;99.90;;;;;;5032547;28;20446;-62
2022/03/26 10:43:01;;;;;;;17.30;11.80;;;17.90;99.90;;;;;;5032657;28;20434;-63
2022/03/26 10:45:29;;;;;;;16.33;11.15;;;17.90;99.90;;;;;;5028897;28;20431;-63
2022/03/26 10:47:58;;;;;;;17.27;11.02;;;18.10;99.90;;;;;;5030470;28;20514;-63
2022/03/26 10:50:28;;;;;;;17.20;11.90;;;18.10;99.90;;;;;;5030607;28;20424;-62
2022/03/26 10:52:56;;;;;;;21.02;13.15;;;18.00;99.90;;;;;;5033220;28;20438;-62
2022/03/26 10:55:24;;;;;;;21.83;14.18;;;18.10;99.90;;;;;;5029338;28;20483;-62
2022/03/26 10:57:51;;;;;;;18.10;12.15;;;18.30;99.90;;;;;;5030512;28;20437;-63
2022/03/26 11:00:22;;;;;;;19.48;11.57;;;18.50;99.90;;;;;;5031085;28;20899;-62
2022/03/26 11:03:04;;;;;;;17.88;12.20;;;18.70;99.90;;;;;;5032976;28;20521;-57
2022/03/26 11:05:34;;;;;;;20.17;12.17;;;19.00;99.90;;;;;;5029419;28;20522;-53
2022/03/26 11:08:02;;;;;;;17.50;12.18;;;19.10;99.90;;;;;;5032179;28;20428;-53
2022/03/26 11:10:31;;;;;;;16.92;10.10;;;19.20;99.90;;;;;;5031736;28;20442;-55
2022/03/26 11:13:00;;;;;;;13.70;10.05;;;19.30;99.90;;;;;;5031102;28;20748;-52
2022/03/26 11:15:31;;;;;;;18.42;10.70;;;19.70;99.90;;;;;;5032212;28;20501;-55
2022/03/26 11:18:26;;;;;;;17.90;11.13;;;19.70;99.90;;;;;;5032235;28;20496;-57
2022/03/26 11:21:19;;;;;;;17.23;11.88;;;19.60;99.90;;;;;;5030261;28;20862;-54
2022/03/26 11:24:07;;;;;;;15.18;11.93;;;19.20;99.90;;;;;;5029333;28;21225;-55
2022/03/26 11:26:45;;;;;;;19.63;11.85;;;19.30;99.90;;;;;;5025374;28;20453;-54
2022/03/26 11:29:32;;;;;;;17.17;11.40;;;19.30;99.90;;;;;;5030257;28;20446;-57
2022/03/26 11:32:07;;;;;;;13.82;9.52;;;19.60;99.90;;;;;;5016863;28;20450;-55
2022/03/26 11:34:38;;;;;;;16.00;11.20;;;19.70;99.90;;;;;;5029890;28;20846;-57
2022/03/26 11:37:13;;;;;;;18.90;11.75;;;19.80;99.90;;;;;;5027558;28;20524;-57
2022/03/26 11:39:47;;;;;;;17.17;10.77;;;20.10;99.90;;;;;;5020485;28;20485;-57
2022/03/26 11:42:14;;;;;;;17.08;10.77;;;20.00;99.90;;;;;;5028449;28;20501;-55
2022/03/26 11:50:41;;;;;;;14.00;10.40;;;20.10;99.90;;;;;;5034699;28;20430;-55
2022/03/26 11:50:42;;;;;;;13.43;9.60;;;20.20;99.90;;;;;;4977553;28;20753;-56
2022/03/26 11:53:13;;;;;;;14.40;9.52;;;20.30;99.90;;;;;;5015119;28;20523;-56
2022/03/26 11:55:45;;;;;;;15.65;9.55;;;20.30;99.90;;;;;;5033864;28;20518;-57
2022/03/26 11:58:20;;;;;;;14.82;9.70;;;20.60;99.90;;;;;;5028455;28;20439;-56
2022/03/26 12:00:55;;;;;;;16.30;12.13;;;20.60;99.90;;;;;;5034048;28;20481;-56
2022/03/26 12:03:23;;;;;;;11.77;7.88;;;20.70;99.90;;;;;;5033883;28;20466;-56
2022/03/26 12:08:48;;;;;;;10.35;7.55;;;21.20;99.90;;;;;;5033253;28;20409;-55
2022/03/26 12:11:15;;;;;;;11.93;8.23;;;21.30;99.90;;;;;;5036067;28;20454;-56
2022/03/26 12:14:00;;;;;;;11.73;8.32;;;21.40;99.90;;;;;;5033450;28;20481;-57
2022/03/26 12:16:55;;;;;;;10.07;7.53;;;21.50;99.90;;;;;;5015919;28;20436;-55
2022/03/26 12:19:39;;;;;;;13.57;7.80;;;21.70;99.90;;;;;;5020793;28;20466;-57
2022/03/26 12:22:26;;;;;;;13.35;7.85;;;21.70;99.90;;;;;;5027536;28;20425;-54
2022/03/26 12:24:56;;;;;;;11.07;7.28;;;21.70;99.90;;;;;;5029044;28;20435;-57
2022/03/26 12:27:24;;;;;;;10.40;7.40;;;21.60;99.90;;;;;;5019664;28;20474;-57
2022/03/26 12:29:54;;;;;;;9.85;6.82;;;21.50;99.90;;;;;;5032734;28;20826;-57
2022/03/26 12:32:21;;;;;;;7.60;5.43;;;21.30;99.90;;;;;;5032982;28;20554;-56
2022/03/26 12:34:55;;;;;;;10.27;6.73;;;21.20;99.90;;;;;;5025793;28;20429;-57
2022/03/26 12:37:23;;;;;;;8.50;6.60;;;21.00;99.90;;;;;;5032807;28;20529;-59
2022/03/26 12:39:51;;;;;;;6.82;5.30;;;21.10;99.90;;;;;;5034057;28;20430;-58
2022/03/26 12:42:20;;;;;;;8.50;5.45;;;21.20;99.90;;;;;;5030729;28;20487;-58
2022/03/26 12:44:47;;;;;;;8.73;6.20;;;21.00;99.90;;;;;;5034764;28;20437;-58
2022/03/26 12:47:17;;;;;;;8.23;6.20;;;21.10;99.90;;;;;;5033460;28;20526;-59
2022/03/26 12:49:47;;;;;;;10.95;7.00;;;21.20;99.90;;;;;;5036402;28;20506;-58
2022/03/26 12:52:17;;;;;;;10.40;6.25;;;20.90;99.90;;;;;;5033879;28;20434;-58
2022/03/26 12:54:44;;;;;;;10.18;6.43;;;20.90;99.90;;;;;;5026229;28;20859;-58
2022/03/26 12:57:11;;;;;;;12.37;6.87;;;20.90;99.90;;;;;;5016192;28;20527;-58
2022/03/26 12:59:39;;;;;;;11.53;7.20;;;20.90;99.90;;;;;;5034684;28;20431;-58